aviador You're here:

K1S5 Decoded Metar

in
Report Time2017-04-25 08:15:00
UTC Time2017-04-25 08:29:18
Flight Rules vfr VFR
WindCalm
Visibility9999 m
Phenomena:N/A
Clouds:Overcast 095 Hf
Expected CloudBase > 1,200 ft AGL from Temp-Dew spread
Ceiling9,500 ft
Temp07°C
Dew Point04°C (81% RH)
AAT5.7°C
QNH1011 hPa
Raw Report
METAR K1S5 250815Z AUTO 00000KT 10SM OVC095 07/04 A2985 RMK AO2 T00720036=

Extra information for K1S5:More info

Social comments